createdAt,value
2022-10-09T00:01:50.597Z,99603.88
2022-10-09T00:04:17.983Z,99614.78
2022-10-09T00:06:45.103Z,99613.75
2022-10-09T00:09:12.868Z,99607.28
2022-10-09T00:11:40.246Z,99600.03
2022-10-09T00:14:07.355Z,99608.09
2022-10-09T00:16:34.621Z,99607.09
2022-10-09T00:19:02.057Z,99607.84
2022-10-09T00:21:30.259Z,99603.94
2022-10-09T00:23:58.185Z,99598.66
2022-10-09T00:26:26.334Z,99591.59
2022-10-09T00:28:53.787Z,99593.19
2022-10-09T00:31:21.024Z,99590.16
2022-10-09T00:33:48.514Z,99591.69
2022-10-09T00:36:19.532Z,99590.16
2022-10-09T00:38:46.999Z,99586.47
2022-10-09T00:41:15.528Z,99581.63
2022-10-09T00:43:42.633Z,99580.78
2022-10-09T00:46:20.801Z,99577.38
2022-10-09T00:48:48.443Z,99573.22
2022-10-09T00:51:15.560Z,99578.03
2022-10-09T00:53:42.677Z,99573.44
2022-10-09T00:56:10.168Z,99568.53
2022-10-09T00:58:37.294Z,99574.28
2022-10-09T01:01:04.517Z,99568.31
2022-10-09T01:03:32.019Z,99573.22
2022-10-09T01:06:16.307Z,99569.63
2022-10-09T01:08:52.246Z,99569.56
2022-10-09T01:11:28.522Z,99568.63
2022-10-09T01:13:58.200Z,99572.75
2022-10-09T01:16:26.736Z,99570.59
2022-10-09T01:18:57.398Z,99571.16
2022-10-09T01:21:25.731Z,99568.31
2022-10-09T01:24:02.892Z,99572.84
2022-10-09T01:26:32.563Z,99567.69
2022-10-09T01:29:01.342Z,99570.09
2022-10-09T01:31:28.937Z,99581.03
2022-10-09T01:33:56.443Z,99574.66
2022-10-09T01:36:23.545Z,99572.09
2022-10-09T01:38:50.701Z,99566.72
2022-10-09T01:41:18.085Z,99579.56
2022-10-09T01:43:45.208Z,99581.56
2022-10-09T01:46:28.322Z,99572.91
2022-10-09T01:48:58.719Z,99566.16
2022-10-09T01:51:26.098Z,99579.28
2022-10-09T01:53:53.235Z,99581.03
2022-10-09T01:56:21.352Z,99578.19
2022-10-09T01:58:52.410Z,99573.16
2022-10-09T02:01:21.431Z,99584.72
2022-10-09T02:03:49.468Z,99580.56
2022-10-09T02:06:17.187Z,99591.16
2022-10-09T02:08:44.879Z,99581.84
2022-10-09T02:11:14.813Z,99589.84
2022-10-09T02:13:42.000Z,99592.31
2022-10-09T02:16:32.482Z,99593.50
2022-10-09T02:19:04.905Z,99595.59
2022-10-09T02:21:46.328Z,99595.91
2022-10-09T02:24:15.420Z,99602.34
2022-10-09T02:26:42.534Z,99602.72
2022-10-09T02:29:09.680Z,99608.81
2022-10-09T02:31:37.558Z,99608.66
2022-10-09T02:34:05.938Z,99604.28
2022-10-09T02:36:33.262Z,99611.03
2022-10-09T02:39:00.792Z,99611.84
2022-10-09T02:41:27.963Z,99616.88
2022-10-09T02:43:55.194Z,99627.16
2022-10-09T02:46:22.818Z,99622.31
2022-10-09T02:48:50.015Z,99620.94
2022-10-09T02:51:17.448Z,99633.16
2022-10-09T02:53:45.447Z,99625.94
2022-10-09T02:56:12.560Z,99626.84
2022-10-09T02:58:39.701Z,99646.75
2022-10-09T03:01:07.191Z,99636.50
2022-10-09T03:03:34.301Z,99636.22
2022-10-09T03:06:05.860Z,99654.31
2022-10-09T03:08:33.313Z,99641.63
2022-10-09T03:11:00.424Z,99645.03
2022-10-09T03:13:27.600Z,99639.78
2022-10-09T03:15:55.132Z,99632.31
2022-10-09T03:18:22.309Z,99645.72
2022-10-09T03:20:49.428Z,99648.16
2022-10-09T03:23:16.811Z,99641.94
2022-10-09T03:25:43.982Z,99648.97
2022-10-09T03:28:11.138Z,99644.63
2022-10-09T03:30:40.571Z,99648.28
2022-10-09T03:33:07.684Z,99655.09
2022-10-09T03:35:34.831Z,99644.19
2022-10-09T03:38:02.224Z,99649.81
2022-10-09T03:40:29.343Z,99651.22
2022-10-09T03:42:56.475Z,99648.63
2022-10-09T03:45:23.865Z,99646.94
2022-10-09T03:47:50.970Z,99650.34
2022-10-09T03:50:18.145Z,99664.88
2022-10-09T03:52:45.644Z,99659.28
2022-10-09T03:55:13.153Z,99667.19
2022-10-09T03:57:40.356Z,99666.88
2022-10-09T04:00:08.237Z,99676.13
2022-10-09T04:02:35.690Z,99668.22
2022-10-09T04:05:02.905Z,99673.09
2022-10-09T04:07:30.096Z,99670.94
2022-10-09T04:09:57.488Z,99683.50
2022-10-09T04:12:24.630Z,99676.59
2022-10-09T04:14:51.791Z,99678.69
2022-10-09T04:17:19.185Z,99666.69
2022-10-09T04:19:46.337Z,99675.59
2022-10-09T04:22:13.444Z,99663.28
2022-10-09T04:24:40.854Z,99681.25
2022-10-09T04:27:07.960Z,99663.50
2022-10-09T04:29:35.085Z,99664.47
2022-10-09T04:32:02.541Z,99675.25
2022-10-09T04:34:29.685Z,99682.38
2022-10-09T04:36:56.801Z,99694.25
2022-10-09T04:39:24.212Z,99701.72
2022-10-09T04:41:51.350Z,99693.50
2022-10-09T04:44:18.550Z,99695.22
2022-10-09T04:46:46.004Z,99713.84
2022-10-09T04:49:13.621Z,99728.94
2022-10-09T04:51:41.076Z,99741.13
2022-10-09T04:54:09.129Z,99746.69
2022-10-09T04:56:36.253Z,99739.69
2022-10-09T04:59:03.531Z,99737.19
2022-10-09T05:01:35.528Z,99730.62
2022-10-09T05:04:05.192Z,99732.03
2022-10-09T05:06:32.579Z,99736.00
2022-10-09T05:08:59.689Z,99732.63
2022-10-09T05:11:26.859Z,99749.56
2022-10-09T05:13:54.891Z,99738.53
2022-10-09T05:16:24.756Z,99746.56
2022-10-09T05:18:53.083Z,99749.81
2022-10-09T05:21:20.889Z,99740.44
2022-10-09T05:23:48.218Z,99733.94
2022-10-09T05:26:16.614Z,99747.44
2022-10-09T05:28:44.270Z,99737.59
2022-10-09T05:31:15.030Z,99745.53
2022-10-09T05:33:42.173Z,99741.16
2022-10-09T05:36:09.567Z,99734.84
2022-10-09T05:38:36.748Z,99742.31
2022-10-09T05:41:04.766Z,99744.56
2022-10-09T05:43:36.078Z,99754.94
2022-10-09T05:46:06.416Z,99755.59
2022-10-09T05:48:33.865Z,99754.25
2022-10-09T05:51:11.669Z,99753.25
2022-10-09T05:53:39.472Z,99752.47
2022-10-09T05:56:14.004Z,99746.50
2022-10-09T05:58:41.880Z,99756.25
2022-10-09T06:01:09.208Z,99751.03
2022-10-09T06:03:36.818Z,99751.78
2022-10-09T06:06:04.862Z,99753.69
2022-10-09T06:08:33.162Z,99754.47
2022-10-09T06:11:13.604Z,99750.09
2022-10-09T06:13:41.063Z,99762.88
2022-10-09T06:16:08.665Z,99773.72
2022-10-09T06:18:35.793Z,99772.44
2022-10-09T06:21:03.216Z,99771.66
2022-10-09T06:23:31.685Z,99787.09
2022-10-09T06:26:00.245Z,99784.03
2022-10-09T06:28:30.891Z,99793.31
2022-10-09T06:31:02.059Z,99792.66
2022-10-09T06:33:30.243Z,99790.25
2022-10-09T06:36:10.012Z,99806.41
2022-10-09T06:38:37.799Z,99797.94
2022-10-09T06:41:05.973Z,99798.72
2022-10-09T06:43:33.276Z,99809.72
2022-10-09T06:46:01.106Z,99808.56
2022-10-09T06:48:32.198Z,99811.63
2022-10-09T06:51:02.615Z,99804.88
2022-10-09T06:53:30.032Z,99814.16
2022-10-09T06:55:57.615Z,99813.81
2022-10-09T06:58:24.846Z,99820.00
2022-10-09T07:01:01.773Z,99824.34
2022-10-09T07:03:28.891Z,99820.06
2022-10-09T07:06:05.293Z,99816.50
2022-10-09T07:08:32.682Z,99818.69
2022-10-09T07:11:00.088Z,99824.09
2022-10-09T07:13:29.335Z,99829.06
2022-10-09T07:15:58.022Z,99837.47
2022-10-09T07:18:26.870Z,99835.13
2022-10-09T07:20:54.113Z,99835.59
2022-10-09T07:23:21.255Z,99839.56
2022-10-09T07:25:48.727Z,99835.47
2022-10-09T07:28:15.988Z,99837.38
2022-10-09T07:30:43.345Z,99835.75
2022-10-09T07:33:10.755Z,99832.87
2022-10-09T07:35:37.958Z,99833.00
2022-10-09T07:38:05.091Z,99834.94
2022-10-09T07:40:35.766Z,99835.00
2022-10-09T07:43:02.901Z,99838.75
2022-10-09T07:45:30.281Z,99846.75
2022-10-09T07:47:57.699Z,99841.72
2022-10-09T07:50:24.894Z,99841.25
2022-10-09T07:52:52.298Z,99842.63
2022-10-09T07:55:19.932Z,99841.37
2022-10-09T07:57:47.069Z,99837.84
2022-10-09T08:00:14.246Z,99831.41
2022-10-09T08:02:41.672Z,99835.72
2022-10-09T08:05:08.888Z,99837.47
2022-10-09T08:07:36.278Z,99840.66
2022-10-09T08:10:04.248Z,99835.44
2022-10-09T08:12:31.389Z,99837.97
2022-10-09T08:14:58.517Z,99840.00
2022-10-09T08:17:25.908Z,99838.94
2022-10-09T08:19:53.047Z,99837.09
2022-10-09T08:22:20.176Z,99836.56
2022-10-09T08:24:47.579Z,99832.06
2022-10-09T08:27:14.715Z,99837.38
2022-10-09T08:29:41.871Z,99833.22
2022-10-09T08:32:09.269Z,99833.94
2022-10-09T08:34:36.410Z,99844.66
2022-10-09T08:37:03.570Z,99846.44
2022-10-09T08:39:31.066Z,99848.84
2022-10-09T08:41:58.627Z,99849.84
2022-10-09T08:44:26.873Z,99851.94
2022-10-09T08:46:57.842Z,99857.75
2022-10-09T08:49:28.147Z,99849.47
2022-10-09T08:51:55.733Z,99853.72
2022-10-09T08:54:33.978Z,99855.34
2022-10-09T08:57:03.040Z,99851.25
2022-10-09T08:59:30.886Z,99854.53
2022-10-09T09:02:04.080Z,99858.06
2022-10-09T09:04:31.448Z,99863.53
2022-10-09T09:07:05.439Z,99859.31
2022-10-09T09:09:36.543Z,99864.44
2022-10-09T09:12:09.829Z,99865.28
2022-10-09T09:14:56.247Z,99871.44
2022-10-09T09:17:29.275Z,99858.50
2022-10-09T09:20:05.671Z,99861.41
2022-10-09T09:22:32.904Z,99870.06
2022-10-09T09:25:00.486Z,99870.97
2022-10-09T09:27:29.245Z,99877.50
2022-10-09T09:29:58.996Z,99872.72
2022-10-09T09:32:26.650Z,99876.03
2022-10-09T09:34:54.186Z,99876.09
2022-10-09T09:37:21.329Z,99883.81
2022-10-09T09:42:35.842Z,99882.72
2022-10-09T09:45:04.708Z,99874.59
2022-10-09T09:47:34.646Z,99887.25
2022-10-09T09:50:02.443Z,99885.69
2022-10-09T09:52:30.633Z,99881.66
2022-10-09T09:54:58.483Z,99878.37
2022-10-09T09:57:30.271Z,99881.16
2022-10-09T10:00:06.392Z,99884.09
2022-10-09T10:02:37.023Z,99886.06
2022-10-09T10:05:23.161Z,99890.19
2022-10-09T10:07:51.538Z,99888.38
2022-10-09T10:10:25.598Z,99891.81
2022-10-09T10:12:53.621Z,99889.53
2022-10-09T10:15:20.979Z,99891.03
2022-10-09T10:17:48.725Z,99895.31
2022-10-09T10:20:16.746Z,99892.19
2022-10-09T10:22:51.161Z,99886.81
2022-10-09T10:25:19.042Z,99888.50
2022-10-09T10:27:46.695Z,99879.47
2022-10-09T10:30:14.477Z,99880.28
2022-10-09T10:32:56.895Z,99886.28
2022-10-09T10:35:25.179Z,99887.16
2022-10-09T10:37:56.372Z,99884.13
2022-10-09T10:40:33.154Z,99891.50
2022-10-09T10:43:09.412Z,99897.34
2022-10-09T10:45:44.517Z,99890.28
2022-10-09T10:48:13.314Z,99892.97
2022-10-09T10:50:43.266Z,99894.53
2022-10-09T10:53:17.305Z,99890.72
2022-10-09T10:56:05.070Z,99893.19
2022-10-09T10:58:32.734Z,99881.84
2022-10-09T11:01:15.744Z,99888.06
2022-10-09T11:03:46.087Z,99888.03
2022-10-09T11:06:18.575Z,99882.56
2022-10-09T11:08:54.781Z,99874.62
2022-10-09T11:11:22.110Z,99869.31
2022-10-09T11:13:52.388Z,99869.81
2022-10-09T11:16:52.119Z,99871.25
2022-10-09T11:19:27.206Z,99868.78
2022-10-09T11:22:03.708Z,99881.28
2022-10-09T11:24:31.058Z,99874.50
2022-10-09T11:27:03.662Z,99873.81
2022-10-09T11:29:39.203Z,99868.09
2022-10-09T11:32:26.568Z,99863.28
2022-10-09T11:34:58.641Z,99860.47
2022-10-09T11:37:27.183Z,99866.94
2022-10-09T11:39:55.033Z,99872.16
2022-10-09T11:42:23.041Z,99858.94
2022-10-09T11:44:53.714Z,99863.03
2022-10-09T11:47:39.921Z,99863.87
2022-10-09T11:50:12.974Z,99863.00
2022-10-09T11:52:43.423Z,99855.53
2022-10-09T11:55:29.920Z,99855.44
2022-10-09T11:58:09.667Z,99855.09
2022-10-09T12:00:36.793Z,99852.19
2022-10-09T12:03:05.172Z,99847.03
2022-10-09T12:05:32.263Z,99842.72
2022-10-09T12:08:09.196Z,99847.97
2022-10-09T12:10:38.746Z,99848.06
2022-10-09T12:13:06.591Z,99841.25
2022-10-09T12:15:48.745Z,99845.94
2022-10-09T12:18:26.294Z,99843.69
2022-10-09T12:20:53.537Z,99847.16
2022-10-09T12:23:27.140Z,99843.50
2022-10-09T12:25:55.270Z,99834.81
2022-10-09T12:28:22.733Z,99842.66
2022-10-09T12:30:49.941Z,99846.75
2022-10-09T12:33:28.062Z,99841.41
2022-10-09T12:36:14.771Z,99842.03
2022-10-09T12:38:42.240Z,99839.06
2022-10-09T12:41:21.926Z,99834.44
2022-10-09T12:43:50.052Z,99840.47
2022-10-09T12:46:31.006Z,99834.09
2022-10-09T12:48:58.240Z,99827.88
2022-10-09T12:51:26.856Z,99828.63
2022-10-09T12:53:54.213Z,99835.06
2022-10-09T12:56:33.663Z,99832.19
2022-10-09T12:59:01.052Z,99823.13
2022-10-09T13:01:28.259Z,99814.41
2022-10-09T13:03:56.742Z,99817.19
2022-10-09T13:06:26.313Z,99813.53
2022-10-09T13:08:57.669Z,99814.34
2022-10-09T13:11:29.118Z,99809.59
2022-10-09T13:13:56.258Z,99812.50
2022-10-09T13:16:23.614Z,99809.28
2022-10-09T13:18:58.310Z,99803.78
2022-10-09T13:21:30.188Z,99812.38
2022-10-09T13:24:06.886Z,99805.25
2022-10-09T13:26:34.058Z,99803.37
2022-10-09T13:29:02.764Z,99804.72
2022-10-09T13:31:29.853Z,99809.09
2022-10-09T13:33:56.974Z,99814.56
2022-10-09T13:36:24.350Z,99816.06
2022-10-09T13:38:51.683Z,99809.66
2022-10-09T13:41:22.852Z,99809.19
2022-10-09T13:43:50.602Z,99800.69
2022-10-09T13:46:17.746Z,99806.25
2022-10-09T13:48:44.913Z,99796.84
2022-10-09T13:51:12.631Z,99803.97
2022-10-09T13:53:44.870Z,99797.63
2022-10-09T13:56:12.022Z,99793.53
2022-10-09T13:58:39.437Z,99795.94
2022-10-09T14:01:07.788Z,99794.66
2022-10-09T14:03:35.316Z,99797.06
2022-10-09T14:06:05.456Z,99799.09
2022-10-09T14:08:32.613Z,99799.19
2022-10-09T14:11:00.659Z,99801.78
2022-10-09T14:13:28.606Z,99796.00
2022-10-09T14:15:55.851Z,99792.94
2022-10-09T14:18:23.235Z,99797.44
2022-10-09T14:20:50.379Z,99802.91
2022-10-09T14:23:17.506Z,99798.66
2022-10-09T14:25:44.907Z,99789.00
2022-10-09T14:28:12.058Z,99793.75
2022-10-09T14:30:42.778Z,99796.97
2022-10-09T14:33:10.162Z,99801.03
2022-10-09T14:35:37.322Z,99790.72
2022-10-09T14:38:04.463Z,99798.97
2022-10-09T14:40:31.840Z,99790.63
2022-10-09T14:42:58.967Z,99800.81
2022-10-09T14:45:26.271Z,99796.97
2022-10-09T14:47:53.635Z,99800.41
2022-10-09T14:50:20.770Z,99794.50
2022-10-09T14:52:48.201Z,99787.72
2022-10-09T14:55:15.791Z,99798.78
2022-10-09T14:57:43.782Z,99801.94
2022-10-09T15:00:12.671Z,99797.91
2022-10-09T15:02:40.127Z,99802.84
2022-10-09T15:05:07.386Z,99801.19
2022-10-09T15:07:34.500Z,99808.47
2022-10-09T15:10:01.884Z,99811.50
2022-10-09T15:12:29.000Z,99806.53
2022-10-09T15:14:56.108Z,99806.31
2022-10-09T15:17:23.490Z,99795.16
2022-10-09T15:19:50.701Z,99809.66
2022-10-09T15:22:17.855Z,99812.09
2022-10-09T15:24:46.833Z,99818.28
2022-10-09T15:27:13.947Z,99818.31
2022-10-09T15:29:41.056Z,99821.78
2022-10-09T15:32:08.487Z,99822.88
2022-10-09T15:34:38.737Z,99823.03
2022-10-09T15:37:07.826Z,99817.81
2022-10-09T15:39:35.469Z,99817.25
2022-10-09T15:42:03.524Z,99819.47
2022-10-09T15:44:30.650Z,99816.69
2022-10-09T15:46:58.032Z,99814.69
2022-10-09T15:49:25.127Z,99811.84
2022-10-09T15:51:52.270Z,99817.63
2022-10-09T15:54:19.679Z,99812.41
2022-10-09T15:56:46.846Z,99819.47
2022-10-09T15:59:14.137Z,99816.13
2022-10-09T16:01:41.690Z,99816.94
2022-10-09T16:04:09.364Z,99819.03
2022-10-09T16:06:36.483Z,99826.22
2022-10-09T16:09:04.500Z,99826.16
2022-10-09T16:11:32.013Z,99832.22
2022-10-09T16:13:59.330Z,99831.09
2022-10-09T16:16:27.571Z,99832.13
2022-10-09T16:18:55.281Z,99841.87
2022-10-09T16:21:23.580Z,99830.03
2022-10-09T16:23:54.446Z,99839.53
2022-10-09T16:26:24.925Z,99843.19
2022-10-09T16:28:52.483Z,99851.16
2022-10-09T16:31:20.743Z,99843.53
2022-10-09T16:33:48.156Z,99850.16
2022-10-09T16:36:15.406Z,99856.66
2022-10-09T16:38:42.521Z,99861.06
2022-10-09T16:41:11.641Z,99861.06
2022-10-09T16:43:38.883Z,99862.09
2022-10-09T16:46:25.632Z,99869.66
2022-10-09T16:48:53.320Z,99863.66
2022-10-09T16:51:22.459Z,99867.12
2022-10-09T16:53:53.192Z,99870.63
2022-10-09T16:56:21.815Z,99878.94
2022-10-09T16:58:49.069Z,99878.28
2022-10-09T17:01:16.302Z,99879.91
2022-10-09T17:03:43.808Z,99883.78
2022-10-09T17:06:12.019Z,99881.59
2022-10-09T17:08:39.298Z,99881.59
2022-10-09T17:11:08.249Z,99883.16
2022-10-09T17:13:35.637Z,99886.75
2022-10-09T17:16:06.557Z,99878.59
2022-10-09T17:18:34.371Z,99882.13
2022-10-09T17:21:03.401Z,99889.31
2022-10-09T17:23:30.609Z,99890.28
2022-10-09T17:25:58.071Z,99892.38
2022-10-09T17:28:25.283Z,99888.88
2022-10-09T17:30:52.481Z,99891.72
2022-10-09T17:33:20.146Z,99889.19
2022-10-09T17:35:47.720Z,99899.28
2022-10-09T17:38:15.314Z,99897.50
2022-10-09T17:40:42.959Z,99900.53
2022-10-09T17:43:10.068Z,99894.22
2022-10-09T17:45:41.310Z,99899.69
2022-10-09T17:48:08.895Z,99902.47
2022-10-09T17:50:36.391Z,99911.75
2022-10-09T17:53:03.561Z,99913.94
2022-10-09T17:55:31.249Z,99912.84
2022-10-09T17:57:58.776Z,99906.78
2022-10-09T18:00:26.330Z,99906.84
2022-10-09T18:02:53.805Z,99912.63
2022-10-09T18:05:21.264Z,99914.84
2022-10-09T18:07:48.767Z,99915.84
2022-10-09T18:10:17.023Z,99916.97
2022-10-09T18:12:44.520Z,99912.72
2022-10-09T18:15:11.762Z,99914.94
2022-10-09T18:17:39.342Z,99914.09
2022-10-09T18:20:06.845Z,99917.22
2022-10-09T18:22:37.109Z,99916.75
2022-10-09T18:25:05.500Z,99909.44
2022-10-09T18:27:32.855Z,99921.59
2022-10-09T18:30:00.368Z,99923.38
2022-10-09T18:32:28.150Z,99920.75
2022-10-09T18:34:55.332Z,99928.47
2022-10-09T18:37:22.522Z,99935.06
2022-10-09T18:42:20.143Z,99941.44
2022-10-09T18:44:47.784Z,99942.25
2022-10-09T18:47:17.053Z,99949.13
2022-10-09T18:49:46.416Z,99947.00
2022-10-09T18:52:14.072Z,99953.78
2022-10-09T18:54:42.025Z,99948.09
2022-10-09T18:57:09.565Z,99953.53
2022-10-09T18:59:37.457Z,99959.94
2022-10-09T19:02:05.051Z,99954.56
2022-10-09T19:04:32.292Z,99957.22
2022-10-09T19:06:59.536Z,99957.34
2022-10-09T19:09:27.015Z,99955.66
2022-10-09T19:11:54.231Z,99950.03
2022-10-09T19:14:21.448Z,99955.06
2022-10-09T19:16:48.845Z,99970.13
2022-10-09T19:19:15.971Z,99969.34
2022-10-09T19:21:44.406Z,99966.53
2022-10-09T19:24:12.403Z,99971.25
2022-10-09T19:26:39.629Z,99973.72
2022-10-09T19:29:07.302Z,99980.78
2022-10-09T19:31:35.261Z,99973.31
2022-10-09T19:34:03.054Z,99976.50
2022-10-09T19:36:33.274Z,99982.97
2022-10-09T19:39:01.038Z,99974.38
2022-10-09T19:41:28.440Z,99982.16
2022-10-09T19:43:55.937Z,99975.84
2022-10-09T19:46:23.586Z,99983.19
2022-10-09T19:48:53.133Z,99980.22
2022-10-09T19:51:21.271Z,99983.97
2022-10-09T19:53:48.676Z,99990.62
2022-10-09T19:56:17.239Z,100001.44
2022-10-09T19:58:45.423Z,100006.34
2022-10-09T20:01:16.228Z,100001.00
2022-10-09T20:03:44.152Z,99992.66
2022-10-09T20:06:11.461Z,100004.97
2022-10-09T20:08:39.140Z,100008.06
2022-10-09T20:11:06.877Z,100012.19
2022-10-09T20:13:34.721Z,100025.75
2022-10-09T20:16:03.208Z,100014.63
2022-10-09T20:18:30.741Z,100026.41
2022-10-09T20:20:57.857Z,100016.91
2022-10-09T20:23:25.125Z,100012.53
2022-10-09T20:26:02.567Z,100018.44
2022-10-09T20:28:33.569Z,100015.41
2022-10-09T20:31:06.267Z,100013.59
2022-10-09T20:33:37.123Z,100021.59
2022-10-09T20:36:05.186Z,100023.09
2022-10-09T20:38:32.330Z,100027.34
2022-10-09T20:41:03.596Z,100020.34
2022-10-09T20:43:30.969Z,100021.97
2022-10-09T20:45:58.105Z,100027.78
2022-10-09T20:48:25.225Z,100031.66
2022-10-09T20:50:52.638Z,100033.41
2022-10-09T20:53:19.770Z,100032.44
2022-10-09T20:55:46.913Z,100032.28
2022-10-09T20:58:14.326Z,100036.66
2022-10-09T21:00:41.891Z,100024.16
2022-10-09T21:03:12.321Z,100036.53
2022-10-09T21:05:41.360Z,100034.03
2022-10-09T21:08:08.490Z,100040.81
2022-10-09T21:10:35.779Z,100034.81
2022-10-09T21:13:03.156Z,100035.66
2022-10-09T21:15:30.280Z,100034.84
2022-10-09T21:17:57.419Z,100041.94
2022-10-09T21:20:24.831Z,100033.13
2022-10-09T21:22:52.187Z,100041.91
2022-10-09T21:25:19.583Z,100035.59
2022-10-09T21:27:46.967Z,100033.91
2022-10-09T21:30:14.079Z,100041.94
2022-10-09T21:32:41.180Z,100047.88
2022-10-09T21:35:08.566Z,100054.97
2022-10-09T21:37:37.611Z,100031.50
2022-10-09T21:40:04.949Z,100032.31
2022-10-09T21:42:32.365Z,100029.41
2022-10-09T21:44:59.606Z,100037.41
2022-10-09T21:47:26.733Z,100042.66
2022-10-09T21:49:54.123Z,100040.66
2022-10-09T21:52:21.264Z,100039.75
2022-10-09T21:54:48.381Z,100025.97
2022-10-09T21:57:15.753Z,100028.56
2022-10-09T21:59:42.873Z,100023.31
2022-10-09T22:02:10.006Z,100019.16
2022-10-09T22:04:37.489Z,100013.94
2022-10-09T22:07:04.614Z,100022.66
2022-10-09T22:09:31.781Z,100018.31
2022-10-09T22:12:00.350Z,100024.31
2022-10-09T22:14:27.797Z,100015.66
2022-10-09T22:16:54.905Z,100021.72
2022-10-09T22:19:22.324Z,100024.09
2022-10-09T22:21:49.437Z,100028.75
2022-10-09T22:24:16.548Z,100019.81
2022-10-09T22:26:43.951Z,100020.09
2022-10-09T22:29:11.067Z,100026.97
2022-10-09T22:31:38.171Z,100024.34
2022-10-09T22:34:05.560Z,100020.81
2022-10-09T22:36:32.811Z,100027.69
2022-10-09T22:39:01.070Z,100028.75
2022-10-09T22:41:29.042Z,100026.81
2022-10-09T22:43:56.909Z,100021.00
2022-10-09T22:46:24.896Z,100031.38
2022-10-09T22:48:52.357Z,100026.69
2022-10-09T22:51:20.128Z,100031.09
2022-10-09T22:53:47.954Z,100031.88
2022-10-09T22:56:19.347Z,100032.84
2022-10-09T22:58:46.688Z,100035.69
2022-10-09T23:01:18.152Z,100034.72
2022-10-09T23:03:45.579Z,100031.19
2022-10-09T23:06:14.146Z,100034.69
2022-10-09T23:08:41.946Z,100043.53
2022-10-09T23:11:10.154Z,100038.75
2022-10-09T23:13:37.352Z,100041.38
2022-10-09T23:16:04.997Z,100043.69
2022-10-09T23:18:32.791Z,100045.72
2022-10-09T23:21:02.281Z,100045.94
2022-10-09T23:23:29.746Z,100041.63
2022-10-09T23:25:57.230Z,100039.63
2022-10-09T23:28:26.533Z,100046.78
2022-10-09T23:30:53.685Z,100039.75
2022-10-09T23:33:21.111Z,100039.81
2022-10-09T23:35:48.234Z,100048.81
2022-10-09T23:38:15.350Z,100043.87
2022-10-09T23:40:42.763Z,100039.63
2022-10-09T23:43:09.899Z,100038.66
2022-10-09T23:45:39.615Z,100045.84
2022-10-09T23:48:06.997Z,100040.34
2022-10-09T23:50:35.030Z,100043.53
2022-10-09T23:53:02.153Z,100040.53
2022-10-09T23:55:29.587Z,100043.16
2022-10-09T23:57:56.708Z,100056.56
